Time;durP1;ratioP1;P1;durP2;ratioP2;P2;SDS_P1;SDS_P2;PMS_P1;PMS_P2;Temp;Humidity;BMP_temperature;BMP_pressure;BME280_temperature;BME280_humidity;BME280_pressure;Samples;Min_cycle;Max_cycle;Signal;HPM_P1;HPM_P2
2024/02/01 00:01:26;;;;;;;7.10;6.50;;;;;;;7.37;73.16;101599.78;5037798;28;20214;-79
2024/02/01 00:03:53;;;;;;;7.37;6.73;;;;;;;7.51;72.93;101585.28;5035469;28;20624;-79
2024/02/01 00:06:21;;;;;;;7.07;6.43;;;;;;;7.61;72.83;101569.78;5038544;28;20257;-78
2024/02/01 00:08:47;;;;;;;6.93;6.43;;;;;;;7.55;73.40;101568.88;5022653;28;20309;-79
2024/02/01 00:11:13;;;;;;;7.53;6.93;;;;;;;7.52;73.11;101563.63;5035164;28;20613;-77
2024/02/01 00:13:39;;;;;;;7.80;6.93;;;;;;;7.29;74.33;101555.53;5036484;28;20272;-79
2024/02/01 00:16:06;;;;;;;6.50;5.90;;;;;;;7.34;74.60;101530.50;5035224;28;20280;-76
2024/02/01 00:18:33;;;;;;;7.40;6.70;;;;;;;7.29;75.41;101511.38;5034953;28;20206;-77
2024/02/01 00:20:59;;;;;;;8.00;7.20;;;;;;;6.99;77.01;101480.72;5034655;28;20218;-79
2024/02/01 00:23:27;;;;;;;7.70;7.00;;;;;;;7.05;77.69;101430.63;5034537;28;20206;-78
2024/02/01 00:25:53;;;;;;;8.27;7.50;;;;;;;7.07;77.96;101411.59;5034776;28;20794;-79
2024/02/01 00:28:19;;;;;;;6.77;6.20;;;;;;;7.09;77.86;101393.44;5035399;28;20215;-79
2024/02/01 00:30:46;;;;;;;8.30;7.03;;;;;;;7.12;78.74;101371.00;5034980;28;20202;-78
2024/02/01 00:33:12;;;;;;;7.63;6.93;;;;;;;7.24;77.65;101364.19;5033779;28;20203;-77
2024/02/01 00:35:38;;;;;;;10.00;7.37;;;;;;;7.00;78.71;101367.38;5032991;28;20230;-77
2024/02/01 00:38:04;;;;;;;7.47;6.80;;;;;;;7.15;78.66;101346.78;5033276;28;20280;-76
2024/02/01 00:40:32;;;;;;;7.93;7.13;;;;;;;7.19;79.18;101330.38;5033286;28;20276;-77
2024/02/01 00:42:58;;;;;;;12.90;7.63;;;;;;;7.14;79.60;101319.97;5031654;28;20621;-77
2024/02/01 00:45:25;;;;;;;9.37;8.23;;;;;;;7.25;81.00;101273.28;5032367;28;20273;-76
2024/02/01 00:47:51;;;;;;;9.47;8.60;;;;;;;7.21;82.50;101255.97;5032955;28;20620;-77
2024/02/01 00:50:17;;;;;;;9.20;8.43;;;;;;;7.37;82.53;101225.78;5032492;28;20256;-76
2024/02/01 00:52:44;;;;;;;9.60;8.80;;;;;;;7.30;84.15;101190.25;5032521;28;20218;-77
2024/02/01 00:55:11;;;;;;;10.13;9.13;;;;;;;7.41;85.24;101156.53;5033406;28;20245;-77
2024/02/01 00:57:38;;;;;;;10.80;9.70;;;;;;;7.01;86.97;101135.53;5033149;28;20260;-77
2024/02/01 01:00:06;;;;;;;10.37;8.90;;;;;;;7.21;86.35;101107.94;5024529;28;20704;-77
2024/02/01 01:02:32;;;;;;;11.07;10.07;;;;;;;7.26;86.86;101095.03;5033242;28;20623;-77
2024/02/01 01:04:59;;;;;;;11.17;10.17;;;;;;;7.14;88.34;101099.28;5032515;28;20677;-77
2024/02/01 01:07:25;;;;;;;10.10;9.20;;;;;;;7.15;88.82;101067.28;5031232;28;20356;-77
2024/02/01 01:09:52;;;;;;;10.97;9.73;;;;;;;7.30;88.14;101069.06;5032653;28;20202;-77
2024/02/01 01:12:18;;;;;;;10.73;9.83;;;;;;;7.18;89.66;101056.03;5032676;28;20259;-77
2024/02/01 01:14:46;;;;;;;10.83;9.93;;;;;;;7.28;89.64;101050.00;5031409;28;20689;-78
2024/02/01 01:17:12;;;;;;;11.60;10.50;;;;;;;7.09;90.35;101035.22;5035251;28;20199;-77
2024/02/01 01:19:39;;;;;;;12.10;11.00;;;;;;;7.01;91.82;101018.72;5036996;28;20310;-77
2024/02/01 01:22:05;;;;;;;13.93;10.80;;;;;;;6.80;93.25;100997.00;5029793;28;20218;-77
2024/02/01 01:24:32;;;;;;;11.43;10.43;;;;;;;6.88;94.21;100950.34;5038076;28;20210;-77
2024/02/01 01:26:58;;;;;;;11.40;10.40;;;;;;;6.79;96.17;100934.72;5033898;28;20717;-77
2024/02/01 01:29:25;;;;;;;13.07;11.40;;;;;;;7.09;94.49;100923.59;5034574;28;20234;-77
2024/02/01 01:31:53;;;;;;;12.37;11.37;;;;;;;7.19;93.45;100946.09;5012989;28;20682;-77
2024/02/01 01:34:19;;;;;;;10.73;9.83;;;;;;;7.21;93.78;100943.53;5013199;28;20679;-77
2024/02/01 01:36:46;;;;;;;11.93;10.97;;;;;;;7.11;94.96;100947.81;5012805;28;20261;-76
2024/02/01 01:39:12;;;;;;;11.30;10.40;;;;;;;7.26;94.31;100947.88;5012509;28;20262;-77
2024/02/01 01:41:43;;;;;;;11.80;10.80;;;;;;;7.35;93.62;100931.44;5012226;28;20230;-77
2024/02/01 01:44:10;;;;;;;12.00;10.80;;;;;;;7.20;94.30;100934.03;5023590;28;20666;-77
2024/02/01 01:46:36;;;;;;;12.30;11.07;;;;;;;7.39;93.95;100935.78;5032850;28;20774;-77
2024/02/01 01:49:04;;;;;;;11.73;10.73;;;;;;;7.30;93.54;100946.16;5033313;28;20633;-77
2024/02/01 01:51:33;;;;;;;12.73;11.43;;;;;;;7.18;94.80;100933.16;5032487;28;20207;-77
2024/02/01 01:53:59;;;;;;;12.37;11.30;;;;;;;7.48;94.14;100920.22;5031293;28;20253;-77
2024/02/01 01:56:26;;;;;;;12.63;11.70;;;;;;;7.17;95.69;100927.06;5032517;28;20230;-77
2024/02/01 01:58:53;;;;;;;12.37;11.37;;;;;;;7.29;95.70;100895.94;5031754;28;20256;-77
2024/02/01 02:01:22;;;;;;;13.50;12.13;;;;;;;7.09;96.12;100893.28;5032480;28;20322;-77
2024/02/01 02:03:51;;;;;;;12.37;11.30;;;;;;;6.85;98.57;100868.13;5032746;28;20210;-77
2024/02/01 02:06:19;;;;;;;11.77;10.77;;;;;;;7.24;98.25;100837.09;5032555;28;20218;-77
2024/02/01 02:08:45;;;;;;;11.33;10.43;;;;;;;7.39;96.11;100851.81;5032901;28;20211;-77
2024/02/01 02:11:12;;;;;;;11.03;10.20;;;;;;;7.30;95.88;100868.25;5032483;28;20234;-77
2024/02/01 02:13:46;;;;;;;10.87;9.97;;;;;;;7.07;97.30;100863.88;5032151;28;20261;-76
2024/02/01 02:16:13;;;;;;;11.23;10.33;;;;;;;6.83;100.00;100806.72;5030308;28;20225;-77
2024/02/01 02:18:39;;;;;;;11.77;10.83;;;;;;;6.99;100.00;100787.72;5038952;28;20206;-76
2024/02/01 02:21:07;;;;;;;11.53;10.67;;;;;;;7.04;100.00;100788.59;5013110;28;20223;-77
2024/02/01 02:23:35;;;;;;;11.27;10.47;;;;;;;7.22;100.00;100784.31;5018498;28;20256;-77
2024/02/01 02:26:05;;;;;;;11.40;10.40;;;;;;;7.07;100.00;100780.81;5031855;28;20231;-76
2024/02/01 02:28:35;;;;;;;11.87;10.97;;;;;;;6.92;100.00;100754.84;5032064;28;20249;-79
2024/02/01 02:31:02;;;;;;;11.70;10.57;;;;;;;6.90;100.00;100733.22;5031588;28;20198;-76
2024/02/01 02:33:28;;;;;;;10.87;9.87;;;;;;;7.17;100.00;100729.75;5031847;28;20210;-79
2024/02/01 02:35:54;;;;;;;10.00;9.00;;;;;;;7.54;98.80;100773.88;5033446;28;20230;-79
2024/02/01 02:38:22;;;;;;;10.37;9.50;;;;;;;7.24;98.32;100806.78;5032922;28;20206;-76
2024/02/01 02:40:50;;;;;;;10.57;9.77;;;;;;;7.50;98.09;100809.38;5033981;28;20230;-79
2024/02/01 02:43:16;;;;;;;10.77;9.83;;;;;;;7.22;98.52;100829.28;5034655;28;20206;-79
2024/02/01 02:45:43;;;;;;;11.07;10.10;;;;;;;7.36;99.48;100811.97;5032941;28;20291;-76
2024/02/01 02:48:10;;;;;;;9.50;8.80;;;;;;;7.04;100.00;100818.91;5012310;28;20199;-77
2024/02/01 02:50:36;;;;;;;9.30;8.60;;;;;;;7.05;100.00;100785.13;5010644;28;20229;-77
2024/02/01 02:53:03;;;;;;;9.70;8.93;;;;;;;6.87;100.00;100753.97;5013847;28;20211;-76
2024/02/01 02:55:29;;;;;;;9.93;9.07;;;;;;;6.96;100.00;100744.47;5031072;28;20295;-76
2024/02/01 02:57:57;;;;;;;10.63;9.83;;;;;;;6.99;100.00;100732.38;5031235;28;20559;-79
2024/02/01 03:00:23;;;;;;;9.57;8.83;;;;;;;7.04;100.00;100730.66;5033063;28;20621;-77
2024/02/01 03:02:50;;;;;;;9.53;8.83;;;;;;;6.98;100.00;100718.53;5031661;28;20617;-76
2024/02/01 03:05:17;;;;;;;10.30;9.40;;;;;;;6.96;100.00;100707.28;5031236;28;20234;-77
2024/02/01 03:07:44;;;;;;;10.43;9.63;;;;;;;6.97;100.00;100717.63;5029272;28;20203;-76
2024/02/01 03:10:10;;;;;;;9.47;8.80;;;;;;;6.98;100.00;100700.38;5030943;28;20203;-76
2024/02/01 03:12:40;;;;;;;10.47;9.57;;;;;;;6.99;100.00;100690.84;5032046;28;20206;-79
2024/02/01 03:15:08;;;;;;;10.80;10.00;;;;;;;7.04;100.00;100681.34;5034713;28;20747;-79
2024/02/01 03:17:35;;;;;;;10.87;9.77;;;;;;;6.87;100.00;100687.38;5035634;28;20260;-79
2024/02/01 03:20:01;;;;;;;11.03;10.10;;;;;;;6.85;100.00;100664.88;5037032;28;20206;-79
2024/02/01 03:22:28;;;;;;;10.50;9.70;;;;;;;6.95;100.00;100645.84;5036622;28;20208;-76
2024/02/01 03:24:59;;;;;;;10.57;9.50;;;;;;;7.12;100.00;100653.63;5034900;28;20348;-77
2024/02/01 03:27:25;;;;;;;11.27;10.27;;;;;;;7.23;100.00;100685.63;5038526;28;20206;-79
2024/02/01 03:29:52;;;;;;;11.63;10.80;;;;;;;7.27;100.00;100705.50;5035138;28;20257;-76
2024/02/01 03:32:20;;;;;;;14.33;13.13;;;;;;;7.15;100.00;100703.81;5034307;28;20198;-76
2024/02/01 03:34:46;;;;;;;10.43;9.63;;;;;;;7.21;100.00;100715.06;5035403;28;20348;-79
2024/02/01 03:37:14;;;;;;;12.60;11.70;;;;;;;6.88;100.00;100689.13;5037593;28;20673;-79
2024/02/01 03:39:41;;;;;;;10.80;9.93;;;;;;;7.13;100.00;100681.31;5035807;28;20232;-76
2024/02/01 03:42:07;;;;;;;11.17;10.30;;;;;;;7.16;100.00;100689.09;5034705;28;20222;-79
2024/02/01 03:44:37;;;;;;;13.13;12.17;;;;;;;7.06;100.00;100705.56;5037361;28;20213;-79
2024/02/01 03:47:09;;;;;;;11.23;10.40;;;;;;;7.04;100.00;100679.59;5038997;28;20249;-79
2024/02/01 03:49:39;;;;;;;12.83;11.63;;;;;;;7.05;100.00;100665.72;5054149;28;20656;-78
2024/02/01 03:52:06;;;;;;;11.57;10.67;;;;;;;7.14;100.00;100670.94;5043227;28;20291;-79
2024/02/01 03:54:32;;;;;;;11.43;10.63;;;;;;;6.90;100.00;100671.81;5037669;28;20275;-79
2024/02/01 03:56:59;;;;;;;12.37;11.30;;;;;;;7.01;100.00;100677.00;5037242;28;20226;-79
2024/02/01 03:59:25;;;;;;;11.97;11.07;;;;;;;6.93;100.00;100656.22;5037009;28;20553;-79
2024/02/01 04:01:52;;;;;;;11.70;10.80;;;;;;;7.12;100.00;100671.81;5037750;28;20230;-79
2024/02/01 04:04:18;;;;;;;11.00;10.20;;;;;;;6.91;100.00;100657.97;5036991;28;20210;-77
2024/02/01 04:06:46;;;;;;;12.30;11.40;;;;;;;7.03;100.00;100659.69;5035020;28;20234;-79
2024/02/01 04:09:12;;;;;;;12.27;11.37;;;;;;;7.04;100.00;100664.03;5037615;28;20210;-79
2024/02/01 04:11:39;;;;;;;12.80;11.87;;;;;;;7.09;100.00;100662.28;5037685;28;20206;-79
2024/02/01 04:14:05;;;;;;;12.73;11.83;;;;;;;7.11;100.00;100655.34;5036911;28;20206;-79
2024/02/01 04:16:31;;;;;;;13.97;12.87;;;;;;;6.87;100.00;100664.00;5037463;28;20230;-79
2024/02/01 04:18:58;;;;;;;14.97;13.77;;;;;;;7.04;100.00;100657.97;5036675;28;20210;-79
2024/02/01 04:21:27;;;;;;;13.50;12.37;;;;;;;7.44;100.00;100682.13;5039976;28;20229;-79
2024/02/01 04:23:54;;;;;;;13.77;12.53;;;;;;;7.28;100.00;100711.59;5023457;28;20607;-77
2024/02/01 04:26:21;;;;;;;12.83;11.80;;;;;;;7.62;100.00;100714.13;5025641;28;20226;-76
2024/02/01 04:28:51;;;;;;;13.10;12.07;;;;;;;7.55;100.00;100736.63;5033497;28;20206;-77
2024/02/01 04:31:18;;;;;;;12.80;11.67;;;;;;;7.76;100.00;100767.78;5033702;28;20210;-77
2024/02/01 04:33:46;;;;;;;12.20;11.10;;;;;;;7.64;100.00;100769.56;5035912;28;20206;-76
2024/02/01 04:36:13;;;;;;;13.47;12.37;;;;;;;7.25;100.00;100763.50;5036021;28;20230;-76
2024/02/01 04:38:40;;;;;;;12.00;11.10;;;;;;;7.61;100.00;100740.97;5031684;28;20202;-76
2024/02/01 04:41:10;;;;;;;11.57;10.67;;;;;;;7.56;100.00;100766.97;5033270;28;20254;-76
2024/02/01 04:43:37;;;;;;;11.80;10.80;;;;;;;7.40;100.00;100763.50;5033469;28;20210;-76
2024/02/01 04:46:04;;;;;;;12.67;11.67;;;;;;;7.56;100.00;100770.41;5032502;28;20231;-76
2024/02/01 04:48:30;;;;;;;12.80;11.80;;;;;;;7.64;100.00;100754.81;5032511;28;20673;-77
2024/02/01 04:50:57;;;;;;;11.70;10.80;;;;;;;7.83;100.00;100780.75;5032671;28;20601;-76
2024/02/01 04:53:23;;;;;;;12.13;11.13;;;;;;;7.31;100.00;100768.69;5031621;28;20214;-76
2024/02/01 04:55:50;;;;;;;13.20;12.20;;;;;;;7.58;100.00;100741.00;5031556;28;20261;-76
2024/02/01 04:58:19;;;;;;;12.57;11.60;;;;;;;7.63;100.00;100754.81;5032234;28;21606;-78
2024/02/01 05:00:45;;;;;;;13.73;12.53;;;;;;;7.60;100.00;100758.28;5034265;28;20265;-79
2024/02/01 05:03:14;;;;;;;13.73;12.63;;;;;;;7.48;100.00;100759.16;5035808;28;20206;-79
2024/02/01 05:05:45;;;;;;;14.13;12.93;;;;;;;7.41;100.00;100761.78;5035150;28;20226;-79
2024/02/01 05:08:11;;;;;;;14.40;13.03;;;;;;;7.43;100.00;100740.13;5034806;28;20309;-79
2024/02/01 05:10:38;;;;;;;14.17;13.00;;;;;;;7.36;100.00;100747.06;5035495;28;20433;-78
2024/02/01 05:13:05;;;;;;;14.03;12.83;;;;;;;7.63;100.00;100750.50;5034809;28;20637;-76
2024/02/01 05:15:32;;;;;;;13.57;12.40;;;;;;;7.40;100.00;100760.91;5032699;28;20268;-76
2024/02/01 05:17:59;;;;;;;13.47;12.37;;;;;;;7.42;100.00;100742.75;5032357;28;20229;-78
2024/02/01 05:20:26;;;;;;;13.23;12.13;;;;;;;7.62;100.00;100745.31;5033062;28;20221;-79
2024/02/01 05:22:52;;;;;;;12.67;11.67;;;;;;;7.53;100.00;100762.66;5033491;28;20236;-78
2024/02/01 05:25:19;;;;;;;12.93;11.83;;;;;;;7.43;100.00;100770.44;5033307;28;20740;-78
2024/02/01 05:27:50;;;;;;;12.57;11.57;;;;;;;7.55;100.00;100766.09;5034968;28;20269;-78
2024/02/01 05:30:17;;;;;;;12.10;11.10;;;;;;;7.11;100.00;100766.09;5034275;28;20624;-79
2024/02/01 05:32:52;;;;;;;11.97;10.97;;;;;;;6.91;100.00;100747.91;5034881;28;20249;-78
2024/02/01 05:35:24;;;;;;;11.27;10.37;;;;;;;7.33;100.00;100743.59;5035271;28;20229;-78
2024/02/01 05:37:50;;;;;;;11.70;10.80;;;;;;;7.15;100.00;100760.94;5033076;28;20238;-79
2024/02/01 05:40:17;;;;;;;10.23;9.43;;;;;;;7.25;100.00;100760.91;5035199;28;20207;-79
2024/02/01 05:42:44;;;;;;;10.63;9.83;;;;;;;7.16;100.00;100779.97;5037578;28;20241;-78
2024/02/01 05:45:11;;;;;;;12.27;11.27;;;;;;;7.11;100.00;100773.88;5031952;28;20232;-78
2024/02/01 05:47:37;;;;;;;12.00;11.10;;;;;;;7.15;100.00;100783.41;5034971;28;20205;-79
2024/02/01 05:50:06;;;;;;;10.87;10.00;;;;;;;7.29;100.00;100792.06;5033572;28;20593;-79
2024/02/01 05:52:35;;;;;;;10.20;9.50;;;;;;;7.25;100.00;100815.44;5033761;28;20202;-78
2024/02/01 05:55:05;;;;;;;10.83;9.93;;;;;;;7.15;100.00;100823.25;5033631;28;20284;-78
2024/02/01 05:57:31;;;;;;;10.37;9.57;;;;;;;7.15;100.00;100823.25;5034485;28;20195;-78
2024/02/01 05:59:57;;;;;;;10.23;9.43;;;;;;;7.28;100.00;100842.28;5033362;28;20198;-76
2024/02/01 06:02:25;;;;;;;9.83;9.03;;;;;;;7.41;100.00;100865.66;5031567;28;20279;-75
2024/02/01 06:04:52;;;;;;;9.83;8.97;;;;;;;7.30;100.00;100896.81;5031134;28;20576;-76
2024/02/01 06:07:19;;;;;;;7.63;7.03;;;;;;;7.22;100.00;100929.69;5034693;28;20198;-77
2024/02/01 06:09:46;;;;;;;7.33;6.73;;;;;;;7.20;100.00;100944.41;5018412;28;20204;-78
2024/02/01 06:12:12;;;;;;;7.60;7.00;;;;;;;7.32;100.00;100971.25;5031213;28;20200;-78
2024/02/01 06:14:38;;;;;;;8.60;7.80;;;;;;;7.14;100.00;100997.16;5038711;28;20202;-78
2024/02/01 06:17:05;;;;;;;8.70;6.90;;;;;;;6.94;100.00;101017.84;5019555;28;20594;-78
2024/02/01 06:19:31;;;;;;;8.77;7.43;;;;;;;6.87;100.00;101018.66;5015171;28;20204;-79
2024/02/01 06:21:58;;;;;;;7.60;6.87;;;;;;;7.05;100.00;101023.94;5013732;28;20226;-76
2024/02/01 06:24:26;;;;;;;6.97;6.37;;;;;;;6.82;100.00;101035.91;5011596;28;20207;-78
2024/02/01 06:26:54;;;;;;;7.80;7.00;;;;;;;6.90;100.00;101042.91;5029085;28;20268;-78
2024/02/01 06:29:21;;;;;;;8.40;6.73;;;;;;;7.00;100.00;101055.91;5033586;28;20217;-78
2024/02/01 06:31:49;;;;;;;6.97;6.30;;;;;;;6.87;100.00;101088.72;5035555;28;20203;-79
2024/02/01 06:34:17;;;;;;;8.23;6.57;;;;;;;6.70;100.00;101088.59;5013981;28;20198;-79
2024/02/01 06:36:50;;;;;;;8.17;6.33;;;;;;;6.51;100.00;101072.88;5027734;28;20755;-77
2024/02/01 06:39:37;;;;;;;7.93;6.30;;;;;;;6.60;100.00;101066.94;5032263;28;20264;-77
2024/02/01 06:42:13;;;;;;;9.37;6.10;;;;;;;6.58;100.00;101071.22;5029764;28;20258;-76
2024/02/01 06:44:43;;;;;;;10.13;6.00;;;;;;;6.56;100.00;101081.59;5031125;28;20205;-75
2024/02/01 06:47:12;;;;;;;7.03;6.33;;;;;;;6.47;100.00;101094.47;5030089;28;20266;-78
2024/02/01 06:50:03;;;;;;;6.43;5.60;;;;;;;6.44;100.00;101091.88;5032880;28;20208;-76
2024/02/01 06:52:40;;;;;;;8.73;5.60;;;;;;;6.45;100.00;101113.47;5015421;28;20228;-77
2024/02/01 06:55:25;;;;;;;6.67;5.13;;;;;;;6.32;100.00;101107.28;5040823;28;20217;-78
2024/02/01 06:58:13;;;;;;;7.70;5.17;;;;;;;6.38;100.00;101111.66;5056481;28;20273;-78
2024/02/01 07:00:51;;;;;;;7.40;4.90;;;;;;;6.24;100.00;101112.41;5055934;28;20343;-78
2024/02/01 07:03:43;;;;;;;8.37;6.23;;;;;;;6.28;100.00;101123.69;5056623;28;20232;-78
2024/02/01 07:06:25;;;;;;;6.73;4.90;;;;;;;6.44;100.00;101123.00;5055911;28;20703;-78
2024/02/01 07:08:52;;;;;;;7.23;4.47;;;;;;;6.26;100.00;101144.41;5044863;28;20206;-77
2024/02/01 07:11:27;;;;;;;10.10;4.43;;;;;;;6.23;100.00;101152.16;5034690;28;20589;-77
2024/02/01 07:14:08;;;;;;;7.83;4.90;;;;;;;6.29;100.00;101146.16;5034679;28;20210;-78
2024/02/01 07:16:54;;;;;;;7.93;5.00;;;;;;;6.19;100.00;101159.91;5035759;28;20271;-78
2024/02/01 07:19:33;;;;;;;6.77;4.50;;;;;;;6.21;100.00;101159.06;5035499;28;20218;-76
2024/02/01 07:22:06;;;;;;;11.27;4.37;;;;;;;6.31;100.00;101168.66;5035226;28;20226;-77
2024/02/01 07:24:39;;;;;;;7.53;3.80;;;;;;;6.29;100.00;101185.91;5034941;28;20200;-78
2024/02/01 07:57:50;;;;;;;11.23;2.80;;;;;;;6.08;100.00;101364.50;5024573;28;20237;-77
2024/02/01 08:00:19;;;;;;;7.10;2.60;;;;;;;6.05;99.62;101380.91;5021705;28;20198;-77
2024/02/01 08:02:50;;;;;;;10.03;3.40;;;;;;;6.38;98.99;101392.59;5019442;28;20305;-78
2024/02/01 08:08:01;;;;;;;9.23;3.10;;;;;;;6.14;97.52;101427.72;5022949;28;20229;-77
2024/02/01 08:10:27;;;;;;;7.67;2.63;;;;;;;6.43;96.21;101441.94;5033553;28;20214;-76
2024/02/01 08:12:55;;;;;;;8.73;2.30;;;;;;;6.20;96.33;101455.41;5034149;28;20205;-76
2024/02/01 08:15:24;;;;;;;11.87;2.83;;;;;;;6.46;96.50;101468.81;5033198;28;20244;-76
2024/02/01 08:17:53;;;;;;;6.27;2.73;;;;;;;6.06;97.03;101472.47;5033927;28;20209;-76
2024/02/01 08:20:21;;;;;;;13.97;3.17;;;;;;;6.25;97.55;101468.47;5033273;28;20210;-75
2024/02/01 08:22:47;;;;;;;17.17;3.60;;;;;;;6.09;97.53;101462.19;5033704;28;20232;-75
2024/02/01 08:25:16;;;;;;;10.50;2.57;;;;;;;6.11;97.97;101457.88;5033852;28;20226;-76
2024/02/01 08:27:49;;;;;;;10.23;2.33;;;;;;;6.22;98.73;101447.66;5033942;28;20209;-76
2024/02/01 08:30:18;;;;;;;10.30;2.77;;;;;;;6.27;97.52;101452.09;5033165;28;20270;-76
2024/02/01 08:32:45;;;;;;;11.87;3.43;;;;;;;6.35;95.11;101491.97;5025646;28;20680;-76
2024/02/01 08:35:13;;;;;;;15.73;2.80;;;;;;;6.31;93.86;101510.91;5033315;28;20222;-77
2024/02/01 08:37:39;;;;;;;8.60;2.77;;;;;;;6.34;94.08;101520.44;5025250;28;20264;-77
2024/02/01 08:40:16;;;;;;;14.37;3.07;;;;;;;6.45;94.56;101513.72;5033211;28;20256;-77
2024/02/01 08:42:43;;;;;;;14.93;3.77;;;;;;;6.39;94.39;101523.16;5034872;28;20640;-77
2024/02/01 08:45:11;;;;;;;8.50;2.50;;;;;;;6.27;94.99;101524.69;5034073;28;20229;-77
2024/02/01 08:47:37;;;;;;;8.40;2.30;;;;;;;6.34;95.80;101515.28;5032228;28;20213;-77
2024/02/01 08:50:06;;;;;;;13.93;2.90;;;;;;;6.51;95.77;101513.81;5015903;28;20210;-77
2024/02/01 08:52:34;;;;;;;12.23;3.70;;;;;;;6.52;95.01;101535.44;5015368;28;20307;-77
2024/02/01 08:55:00;;;;;;;10.53;2.77;;;;;;;6.49;93.88;101544.03;5015990;28;20207;-77
2024/02/01 08:57:27;;;;;;;11.70;2.80;;;;;;;6.23;94.58;101543.63;5013973;28;20210;-75
2024/02/01 08:59:53;;;;;;;12.40;2.40;;;;;;;6.12;94.20;101546.03;5013277;28;20203;-75
2024/02/01 09:02:19;;;;;;;9.40;3.53;;;;;;;6.25;93.79;101549.72;5012410;28;20793;-75
2024/02/01 09:04:46;;;;;;;9.47;2.33;;;;;;;6.22;93.51;101562.59;5012835;28;20234;-75
2024/02/01 09:07:14;;;;;;;8.20;3.33;;;;;;;6.12;92.84;101576.25;5015286;28;20207;-75
2024/02/01 09:09:43;;;;;;;9.67;2.70;;;;;;;6.40;91.80;101600.94;5028917;28;20206;-74
2024/02/01 09:12:16;;;;;;;14.87;2.87;;;;;;;6.52;91.43;101615.84;5011337;28;20195;-75
2024/02/01 09:14:42;;;;;;;17.43;3.57;;;;;;;6.38;91.61;101620.78;5023589;28;20206;-74
2024/02/01 09:17:09;;;;;;;15.40;3.57;;;;;;;6.72;91.28;101622.25;5029869;28;20650;-75
2024/02/01 09:19:35;;;;;;;17.93;3.57;;;;;;;6.63;90.61;101634.19;5026320;28;20221;-76
2024/02/01 09:22:03;;;;;;;12.70;4.10;;;;;;;6.70;90.88;101639.50;5012375;28;20230;-76
2024/02/01 09:24:29;;;;;;;12.80;3.00;;;;;;;6.54;91.08;101658.25;5030550;28;20278;-75
2024/02/01 09:26:57;;;;;;;20.33;3.07;;;;;;;6.52;91.06;101662.53;5030062;28;20281;-77
2024/02/01 09:29:26;;;;;;;17.23;2.90;;;;;;;6.62;90.81;101669.66;5022293;28;20206;-77
2024/02/01 09:31:55;;;;;;;20.23;3.73;;;;;;;6.57;89.40;101703.28;5032749;28;20225;-77
2024/02/01 09:34:22;;;;;;;13.10;3.30;;;;;;;6.68;89.03;101715.56;5032427;28;20210;-77
2024/02/01 09:36:50;;;;;;;21.27;4.10;;;;;;;6.87;88.46;101711.56;5032519;28;20236;-77
2024/02/01 09:39:17;;;;;;;13.17;2.97;;;;;;;6.72;87.58;101739.00;5031845;28;20282;-76
2024/02/01 09:41:44;;;;;;;19.93;3.83;;;;;;;6.79;88.12;101758.16;5031976;28;20288;-77
2024/02/01 09:44:11;;;;;;;17.13;4.53;;;;;;;6.69;88.16;101751.91;5031437;28;20862;-75
2024/02/01 09:46:39;;;;;;;8.70;3.27;;;;;;;6.69;87.82;101780.47;5031823;28;20774;-77
2024/02/01 09:49:07;;;;;;;14.43;3.67;;;;;;;6.76;87.40;101774.53;5032498;28;20210;-77
2024/02/01 09:51:34;;;;;;;18.10;3.77;;;;;;;7.00;87.81;101774.94;5031887;28;20208;-77
2024/02/01 09:54:00;;;;;;;14.17;3.27;;;;;;;7.03;85.99;101808.75;5031776;28;20206;-77
2024/02/01 09:56:27;;;;;;;13.03;3.30;;;;;;;6.82;85.77;101840.38;5031155;28;20227;-77
2024/02/01 09:58:55;;;;;;;16.87;3.57;;;;;;;6.85;84.30;101866.41;5012105;28;20211;-77
2024/02/01 10:01:24;;;;;;;14.73;3.93;;;;;;;6.85;84.45;101876.78;5012002;28;20203;-77
2024/02/01 10:03:52;;;;;;;14.53;3.57;;;;;;;7.03;85.01;101869.34;5012139;28;20233;-79
2024/02/01 10:06:27;;;;;;;13.37;3.50;;;;;;;7.03;84.37;101886.63;5031442;28;20313;-80
2024/02/01 10:08:54;;;;;;;13.80;3.53;;;;;;;6.90;84.02;101908.91;5035908;28;20244;-79
2024/02/01 10:11:27;;;;;;;12.60;3.30;;;;;;;7.00;83.79;101915.13;5034233;28;20207;-79
2024/02/01 10:14:00;;;;;;;15.00;4.27;;;;;;;7.25;83.80;101925.13;5033966;28;20207;-80
2024/02/01 10:17:05;;;;;;;18.30;3.57;;;;;;;7.43;83.94;101921.13;5032978;28;20234;-81
2024/02/01 10:19:37;;;;;;;19.90;2.97;;;;;;;7.16;83.16;101938.84;5024588;28;20223;-79
2024/02/01 10:22:32;;;;;;;12.13;3.13;;;;;;;6.97;82.73;101949.69;5032917;28;20681;-79
2024/02/01 10:24:58;;;;;;;13.83;3.67;;;;;;;7.07;80.98;101963.75;5016944;28;20203;-78
2024/02/01 10:27:24;;;;;;;14.40;2.97;;;;;;;7.04;80.30;102003.50;5032798;28;20210;-79
2024/02/01 10:29:51;;;;;;;25.37;3.43;;;;;;;7.04;81.65;102006.09;5033724;28;20202;-80
2024/02/01 10:32:20;;;;;;;15.90;3.63;;;;;;;7.27;81.64;102010.88;5034007;28;20202;-79
2024/02/01 10:34:50;;;;;;;20.07;3.37;;;;;;;7.04;80.88;102003.50;5033717;28;20211;-78
2024/02/01 10:37:18;;;;;;;16.57;3.97;;;;;;;7.22;82.34;101971.84;5032841;28;20294;-78
2024/02/01 10:39:56;;;;;;;11.77;3.10;;;;;;;7.44;80.04;101988.72;5031747;28;20202;-80
2024/02/01 10:42:29;;;;;;;12.37;3.43;;;;;;;7.44;80.29;102014.69;5033725;28;20234;-77
2024/02/01 10:44:57;;;;;;;18.63;3.80;;;;;;;7.50;80.65;102033.00;5036847;28;20209;-79
2024/02/01 10:47:33;;;;;;;16.93;3.70;;;;;;;7.43;79.81;102038.91;5020940;28;20203;-78
2024/02/01 10:50:01;;;;;;;12.07;2.37;;;;;;;7.38;79.95;102043.16;5012926;28;20198;-78
2024/02/01 10:52:29;;;;;;;32.73;4.43;;;;;;;7.06;79.01;102065.84;5029126;28;20229;-78
2024/02/01 10:54:56;;;;;;;13.97;3.20;;;;;;;7.35;78.53;102088.13;5032710;28;20256;-79
2024/02/01 10:57:25;;;;;;;15.37;4.17;;;;;;;7.47;80.42;102063.22;5032920;28;20210;-79
2024/02/01 10:59:54;;;;;;;16.13;3.30;;;;;;;7.40;79.48;102069.16;5036300;28;20205;-79
2024/02/01 11:02:21;;;;;;;10.93;2.60;;;;;;;7.32;78.54;102076.78;5020934;28;20293;-78
2024/02/01 11:07:38;;;;;;;15.63;3.77;;;;;;;7.35;79.02;102067.34;5016381;28;20250;-78
2024/02/01 11:10:13;;;;;;;10.10;2.87;;;;;;;7.13;78.79;102071.19;5032611;28;20210;-79
2024/02/01 11:12:40;;;;;;;13.73;3.73;;;;;;;7.30;79.70;102044.72;5033166;28;20256;-79
2024/02/01 11:15:16;;;;;;;16.90;3.87;;;;;;;7.52;79.35;102033.91;5031868;28;20241;-80
2024/02/01 11:17:43;;;;;;;12.40;2.80;;;;;;;7.11;78.76;102061.63;5030736;28;20281;-78
2024/02/01 11:20:12;;;;;;;11.07;3.37;;;;;;;7.42;79.36;102049.28;5012879;28;20210;-80
2024/02/01 11:22:41;;;;;;;16.83;3.40;;;;;;;7.36;79.95;102037.91;5030900;28;20233;-79
2024/02/01 11:25:08;;;;;;;13.00;3.87;;;;;;;7.47;78.59;102053.75;5032777;28;20734;-79
2024/02/01 11:27:36;;;;;;;9.67;2.83;;;;;;;7.63;78.04;102051.41;5032033;28;20225;-78
2024/02/01 11:30:19;;;;;;;10.97;3.33;;;;;;;7.35;77.36;102077.75;5031815;28;20203;-79
2024/02/01 11:32:46;;;;;;;16.10;3.20;;;;;;;7.79;77.03;102078.56;5033455;28;20210;-80
2024/02/01 11:35:16;;;;;;;6.87;2.50;;;;;;;7.59;77.59;102096.38;5035239;28;20222;-80
2024/02/01 11:37:42;;;;;;;9.30;2.40;;;;;;;7.49;78.10;102080.63;5036395;28;20297;-78
2024/02/01 11:40:15;;;;;;;8.53;2.83;;;;;;;7.70;76.88;102087.94;5034820;28;20238;-78
2024/02/01 11:42:41;;;;;;;12.43;3.17;;;;;;;7.63;75.71;102118.97;5034802;28;20257;-77
2024/02/01 11:45:10;;;;;;;11.40;2.90;;;;;;;7.82;76.66;102128.03;5034440;28;20256;-78
2024/02/01 11:47:36;;;;;;;16.50;2.73;;;;;;;7.81;76.34;102139.28;5035349;28;20210;-78
2024/02/01 11:50:03;;;;;;;12.20;3.23;;;;;;;7.73;77.02;102129.63;5034927;28;20631;-78
2024/02/01 11:52:35;;;;;;;9.73;3.67;;;;;;;8.02;76.62;102115.41;5036015;28;20198;-79
2024/02/01 11:55:04;;;;;;;18.63;3.27;;;;;;;7.83;75.29;102141.06;5035612;28;20199;-79
2024/02/01 11:57:32;;;;;;;9.90;2.83;;;;;;;7.96;76.00;102145.66;5035754;28;20210;-78
2024/02/01 11:59:59;;;;;;;13.13;4.17;;;;;;;7.82;75.84;102141.91;5034412;28;20218;-78
2024/02/01 12:02:26;;;;;;;8.13;2.70;;;;;;;7.56;74.77;102155.25;5035058;28;20206;-79
2024/02/01 12:04:55;;;;;;;14.40;3.33;;;;;;;7.85;75.24;102149.78;5037335;28;20225;-79